sensor_id;sensor_type;location;lat;lon;timestamp;P1;durP1;ratioP1;P2;durP2;ratioP2
12482;SDS011;6306;47.134;15.344;2022-12-07T00:00:20;4.17;;;3.60;;
12482;SDS011;6306;47.134;15.344;2022-12-07T00:02:46;6.90;;;4.90;;
12482;SDS011;6306;47.134;15.344;2022-12-07T00:05:12;5.23;;;3.87;;
12482;SDS011;6306;47.134;15.344;2022-12-07T00:07:38;6.00;;;4.67;;
12482;SDS011;6306;47.134;15.344;2022-12-07T00:10:04;4.67;;;4.27;;
12482;SDS011;6306;47.134;15.344;2022-12-07T00:12:30;6.43;;;4.70;;
12482;SDS011;6306;47.134;15.344;2022-12-07T00:14:56;5.77;;;4.77;;
12482;SDS011;6306;47.134;15.344;2022-12-07T00:17:22;6.73;;;4.20;;
12482;SDS011;6306;47.134;15.344;2022-12-07T00:19:48;5.10;;;4.30;;
12482;SDS011;6306;47.134;15.344;2022-12-07T00:22:14;6.37;;;5.70;;
12482;SDS011;6306;47.134;15.344;2022-12-07T00:24:40;9.73;;;6.17;;
12482;SDS011;6306;47.134;15.344;2022-12-07T00:27:06;7.17;;;4.80;;
12482;SDS011;6306;47.134;15.344;2022-12-07T00:29:32;11.20;;;6.30;;
12482;SDS011;6306;47.134;15.344;2022-12-07T00:31:58;8.70;;;6.60;;
12482;SDS011;6306;47.134;15.344;2022-12-07T00:34:24;5.10;;;4.30;;
12482;SDS011;6306;47.134;15.344;2022-12-07T00:36:50;9.47;;;5.13;;
12482;SDS011;6306;47.134;15.344;2022-12-07T00:39:16;10.30;;;6.77;;
12482;SDS011;6306;47.134;15.344;2022-12-07T00:41:42;8.33;;;6.10;;
12482;SDS011;6306;47.134;15.344;2022-12-07T00:44:09;9.77;;;6.20;;
12482;SDS011;6306;47.134;15.344;2022-12-07T00:46:35;10.77;;;6.37;;
12482;SDS011;6306;47.134;15.344;2022-12-07T00:49:01;12.80;;;6.53;;
12482;SDS011;6306;47.134;15.344;2022-12-07T00:51:27;9.93;;;6.70;;
12482;SDS011;6306;47.134;15.344;2022-12-07T00:53:53;9.10;;;6.00;;
12482;SDS011;6306;47.134;15.344;2022-12-07T00:56:20;10.97;;;6.27;;
12482;SDS011;6306;47.134;15.344;2022-12-07T00:58:51;12.20;;;5.90;;
12482;SDS011;6306;47.134;15.344;2022-12-07T01:01:17;13.77;;;6.70;;
12482;SDS011;6306;47.134;15.344;2022-12-07T01:03:43;10.83;;;6.60;;
12482;SDS011;6306;47.134;15.344;2022-12-07T01:06:09;7.63;;;5.53;;
12482;SDS011;6306;47.134;15.344;2022-12-07T01:08:35;9.80;;;6.63;;
12482;SDS011;6306;47.134;15.344;2022-12-07T01:11:02;12.57;;;6.90;;
12482;SDS011;6306;47.134;15.344;2022-12-07T01:13:29;12.03;;;8.03;;
12482;SDS011;6306;47.134;15.344;2022-12-07T01:15:58;11.60;;;7.67;;
12482;SDS011;6306;47.134;15.344;2022-12-07T01:18:26;15.70;;;9.03;;
12482;SDS011;6306;47.134;15.344;2022-12-07T01:21:02;15.93;;;7.20;;
12482;SDS011;6306;47.134;15.344;2022-12-07T01:23:29;11.60;;;7.73;;
12482;SDS011;6306;47.134;15.344;2022-12-07T01:25:56;11.53;;;8.03;;
12482;SDS011;6306;47.134;15.344;2022-12-07T01:28:22;15.20;;;7.17;;
12482;SDS011;6306;47.134;15.344;2022-12-07T01:31:10;15.37;;;8.40;;
12482;SDS011;6306;47.134;15.344;2022-12-07T01:33:39;12.80;;;7.93;;
12482;SDS011;6306;47.134;15.344;2022-12-07T01:36:13;11.73;;;9.40;;
12482;SDS011;6306;47.134;15.344;2022-12-07T01:38:39;14.30;;;7.07;;
12482;SDS011;6306;47.134;15.344;2022-12-07T01:41:05;9.80;;;7.47;;
12482;SDS011;6306;47.134;15.344;2022-12-07T01:43:32;11.27;;;7.40;;
12482;SDS011;6306;47.134;15.344;2022-12-07T01:45:58;11.67;;;6.57;;
12482;SDS011;6306;47.134;15.344;2022-12-07T01:48:28;9.93;;;8.10;;
12482;SDS011;6306;47.134;15.344;2022-12-07T01:50:57;12.50;;;7.20;;
12482;SDS011;6306;47.134;15.344;2022-12-07T01:53:26;13.00;;;7.60;;
12482;SDS011;6306;47.134;15.344;2022-12-07T01:55:54;10.70;;;7.10;;
12482;SDS011;6306;47.134;15.344;2022-12-07T01:58:22;10.67;;;6.80;;
12482;SDS011;6306;47.134;15.344;2022-12-07T02:00:48;12.33;;;7.27;;
12482;SDS011;6306;47.134;15.344;2022-12-07T02:03:22;9.60;;;6.60;;
12482;SDS011;6306;47.134;15.344;2022-12-07T02:05:49;7.60;;;5.20;;
12482;SDS011;6306;47.134;15.344;2022-12-07T02:08:15;7.83;;;5.40;;
12482;SDS011;6306;47.134;15.344;2022-12-07T02:10:42;13.60;;;5.30;;
12482;SDS011;6306;47.134;15.344;2022-12-07T02:13:15;7.00;;;5.17;;
12482;SDS011;6306;47.134;15.344;2022-12-07T02:18:41;8.17;;;4.80;;
12482;SDS011;6306;47.134;15.344;2022-12-07T02:29:02;8.87;;;5.60;;
12482;SDS011;6306;47.134;15.344;2022-12-07T02:31:32;7.80;;;5.93;;
12482;SDS011;6306;47.134;15.344;2022-12-07T02:34:04;8.37;;;4.80;;
12482;SDS011;6306;47.134;15.344;2022-12-07T02:36:35;4.00;;;3.60;;
12482;SDS011;6306;47.134;15.344;2022-12-07T02:39:07;4.10;;;3.27;;
12482;SDS011;6306;47.134;15.344;2022-12-07T02:41:40;6.20;;;3.53;;
12482;SDS011;6306;47.134;15.344;2022-12-07T02:44:10;4.90;;;3.60;;
12482;SDS011;6306;47.134;15.344;2022-12-07T02:46:41;5.50;;;3.10;;
12482;SDS011;6306;47.134;15.344;2022-12-07T02:49:07;3.57;;;3.27;;
12482;SDS011;6306;47.134;15.344;2022-12-07T02:51:38;4.00;;;3.37;;
12482;SDS011;6306;47.134;15.344;2022-12-07T02:54:08;3.60;;;2.87;;
12482;SDS011;6306;47.134;15.344;2022-12-07T03:04:20;5.73;;;4.37;;
12482;SDS011;6306;47.134;15.344;2022-12-07T03:06:49;5.30;;;3.73;;
12482;SDS011;6306;47.134;15.344;2022-12-07T03:09:21;5.37;;;4.77;;
12482;SDS011;6306;47.134;15.344;2022-12-07T03:11:49;3.87;;;3.50;;
12482;SDS011;6306;47.134;15.344;2022-12-07T03:14:29;9.27;;;3.33;;
12482;SDS011;6306;47.134;15.344;2022-12-07T03:19:25;4.60;;;3.40;;
12482;SDS011;6306;47.134;15.344;2022-12-07T03:24:20;3.57;;;2.97;;
12482;SDS011;6306;47.134;15.344;2022-12-07T03:26:48;4.10;;;3.50;;
12482;SDS011;6306;47.134;15.344;2022-12-07T03:29:19;3.60;;;3.20;;
12482;SDS011;6306;47.134;15.344;2022-12-07T03:31:50;4.80;;;2.30;;
12482;SDS011;6306;47.134;15.344;2022-12-07T03:34:26;4.20;;;3.73;;
12482;SDS011;6306;47.134;15.344;2022-12-07T03:36:59;4.67;;;3.63;;
12482;SDS011;6306;47.134;15.344;2022-12-07T03:39:28;9.30;;;4.30;;
12482;SDS011;6306;47.134;15.344;2022-12-07T03:41:55;5.23;;;4.43;;
12482;SDS011;6306;47.134;15.344;2022-12-07T03:44:23;6.67;;;4.50;;
12482;SDS011;6306;47.134;15.344;2022-12-07T03:47:32;4.00;;;3.43;;
12482;SDS011;6306;47.134;15.344;2022-12-07T03:52:28;6.90;;;3.63;;
12482;SDS011;6306;47.134;15.344;2022-12-07T03:55:05;5.40;;;3.60;;
12482;SDS011;6306;47.134;15.344;2022-12-07T03:57:33;6.53;;;3.00;;
12482;SDS011;6306;47.134;15.344;2022-12-07T04:00:00;3.73;;;3.17;;
12482;SDS011;6306;47.134;15.344;2022-12-07T04:02:27;3.67;;;2.80;;
12482;SDS011;6306;47.134;15.344;2022-12-07T04:04:54;4.17;;;2.77;;
12482;SDS011;6306;47.134;15.344;2022-12-07T04:07:20;3.83;;;2.90;;
12482;SDS011;6306;47.134;15.344;2022-12-07T04:09:46;5.30;;;2.83;;
12482;SDS011;6306;47.134;15.344;2022-12-07T04:12:12;4.07;;;3.33;;
12482;SDS011;6306;47.134;15.344;2022-12-07T04:14:38;3.27;;;2.97;;
12482;SDS011;6306;47.134;15.344;2022-12-07T04:17:04;6.90;;;2.90;;
12482;SDS011;6306;47.134;15.344;2022-12-07T04:19:31;4.60;;;3.27;;
12482;SDS011;6306;47.134;15.344;2022-12-07T04:21:57;3.67;;;2.80;;
12482;SDS011;6306;47.134;15.344;2022-12-07T04:24:24;2.70;;;2.43;;
12482;SDS011;6306;47.134;15.344;2022-12-07T04:26:50;3.23;;;2.93;;
12482;SDS011;6306;47.134;15.344;2022-12-07T04:29:17;4.07;;;3.67;;
12482;SDS011;6306;47.134;15.344;2022-12-07T04:31:43;2.97;;;2.23;;
12482;SDS011;6306;47.134;15.344;2022-12-07T04:34:09;4.17;;;3.20;;
12482;SDS011;6306;47.134;15.344;2022-12-07T04:36:36;5.13;;;2.93;;
12482;SDS011;6306;47.134;15.344;2022-12-07T04:39:02;5.70;;;2.73;;
12482;SDS011;6306;47.134;15.344;2022-12-07T04:41:29;2.50;;;2.20;;
12482;SDS011;6306;47.134;15.344;2022-12-07T04:43:55;2.23;;;2.00;;
12482;SDS011;6306;47.134;15.344;2022-12-07T04:46:22;3.23;;;2.03;;
12482;SDS011;6306;47.134;15.344;2022-12-07T04:48:49;3.30;;;2.27;;
12482;SDS011;6306;47.134;15.344;2022-12-07T04:51:18;2.73;;;2.27;;
12482;SDS011;6306;47.134;15.344;2022-12-07T04:53:44;2.97;;;2.30;;
12482;SDS011;6306;47.134;15.344;2022-12-07T04:56:10;7.23;;;2.13;;
12482;SDS011;6306;47.134;15.344;2022-12-07T04:58:36;1.77;;;1.67;;
12482;SDS011;6306;47.134;15.344;2022-12-07T05:01:02;3.60;;;2.00;;
12482;SDS011;6306;47.134;15.344;2022-12-07T05:03:28;2.70;;;2.30;;
12482;SDS011;6306;47.134;15.344;2022-12-07T05:05:54;4.03;;;2.20;;
12482;SDS011;6306;47.134;15.344;2022-12-07T05:08:20;4.03;;;2.27;;
12482;SDS011;6306;47.134;15.344;2022-12-07T05:10:48;3.73;;;1.83;;
12482;SDS011;6306;47.134;15.344;2022-12-07T05:13:14;4.90;;;2.67;;
12482;SDS011;6306;47.134;15.344;2022-12-07T05:15:40;3.77;;;2.30;;
12482;SDS011;6306;47.134;15.344;2022-12-07T05:18:07;3.37;;;2.60;;
12482;SDS011;6306;47.134;15.344;2022-12-07T05:20:34;4.77;;;2.30;;
12482;SDS011;6306;47.134;15.344;2022-12-07T05:23:00;7.47;;;3.10;;
12482;SDS011;6306;47.134;15.344;2022-12-07T05:25:26;4.73;;;2.80;;
12482;SDS011;6306;47.134;15.344;2022-12-07T05:27:52;3.63;;;3.00;;
12482;SDS011;6306;47.134;15.344;2022-12-07T05:30:20;10.03;;;2.97;;
12482;SDS011;6306;47.134;15.344;2022-12-07T05:32:46;5.53;;;3.67;;
12482;SDS011;6306;47.134;15.344;2022-12-07T05:35:12;4.80;;;4.03;;
12482;SDS011;6306;47.134;15.344;2022-12-07T05:37:38;15.27;;;4.20;;
12482;SDS011;6306;47.134;15.344;2022-12-07T05:40:04;8.23;;;3.23;;
12482;SDS011;6306;47.134;15.344;2022-12-07T05:42:31;7.43;;;4.10;;
12482;SDS011;6306;47.134;15.344;2022-12-07T05:44:56;4.03;;;3.63;;
12482;SDS011;6306;47.134;15.344;2022-12-07T05:47:23;9.67;;;3.10;;
12482;SDS011;6306;47.134;15.344;2022-12-07T05:49:49;4.67;;;3.87;;
12482;SDS011;6306;47.134;15.344;2022-12-07T05:52:15;4.70;;;4.30;;
12482;SDS011;6306;47.134;15.344;2022-12-07T05:54:41;4.40;;;3.03;;
12482;SDS011;6306;47.134;15.344;2022-12-07T05:57:07;6.90;;;4.20;;
12482;SDS011;6306;47.134;15.344;2022-12-07T05:59:33;4.60;;;3.70;;
12482;SDS011;6306;47.134;15.344;2022-12-07T06:02:00;4.07;;;3.67;;
12482;SDS011;6306;47.134;15.344;2022-12-07T06:04:31;10.03;;;4.63;;
12482;SDS011;6306;47.134;15.344;2022-12-07T06:06:57;7.27;;;4.10;;
12482;SDS011;6306;47.134;15.344;2022-12-07T06:09:24;11.77;;;5.93;;
12482;SDS011;6306;47.134;15.344;2022-12-07T06:11:50;11.93;;;5.20;;
12482;SDS011;6306;47.134;15.344;2022-12-07T06:14:35;15.90;;;4.93;;
12482;SDS011;6306;47.134;15.344;2022-12-07T06:17:02;11.47;;;5.40;;
12482;SDS011;6306;47.134;15.344;2022-12-07T06:19:28;20.03;;;5.80;;
12482;SDS011;6306;47.134;15.344;2022-12-07T06:21:54;10.33;;;4.23;;
12482;SDS011;6306;47.134;15.344;2022-12-07T06:24:20;14.53;;;5.90;;
12482;SDS011;6306;47.134;15.344;2022-12-07T06:26:46;12.83;;;4.83;;
12482;SDS011;6306;47.134;15.344;2022-12-07T06:29:13;12.20;;;5.70;;
12482;SDS011;6306;47.134;15.344;2022-12-07T06:31:39;19.43;;;5.30;;
12482;SDS011;6306;47.134;15.344;2022-12-07T06:34:06;14.53;;;6.33;;
12482;SDS011;6306;47.134;15.344;2022-12-07T06:36:32;13.50;;;4.87;;
12482;SDS011;6306;47.134;15.344;2022-12-07T06:38:58;5.00;;;4.30;;
12482;SDS011;6306;47.134;15.344;2022-12-07T06:41:24;6.97;;;4.87;;
12482;SDS011;6306;47.134;15.344;2022-12-07T06:43:50;5.00;;;4.50;;
12482;SDS011;6306;47.134;15.344;2022-12-07T06:46:16;5.53;;;4.70;;
12482;SDS011;6306;47.134;15.344;2022-12-07T06:48:43;6.10;;;4.00;;
12482;SDS011;6306;47.134;15.344;2022-12-07T06:51:09;4.27;;;3.87;;
12482;SDS011;6306;47.134;15.344;2022-12-07T06:53:35;5.20;;;3.90;;
12482;SDS011;6306;47.134;15.344;2022-12-07T06:56:01;6.20;;;3.87;;
12482;SDS011;6306;47.134;15.344;2022-12-07T06:58:27;5.97;;;4.40;;
12482;SDS011;6306;47.134;15.344;2022-12-07T07:00:53;6.37;;;4.57;;
12482;SDS011;6306;47.134;15.344;2022-12-07T07:03:19;5.13;;;3.70;;
12482;SDS011;6306;47.134;15.344;2022-12-07T07:05:46;6.40;;;4.87;;
12482;SDS011;6306;47.134;15.344;2022-12-07T07:08:12;8.83;;;5.17;;
12482;SDS011;6306;47.134;15.344;2022-12-07T07:10:38;8.00;;;5.83;;
12482;SDS011;6306;47.134;15.344;2022-12-07T07:13:04;9.33;;;6.00;;
12482;SDS011;6306;47.134;15.344;2022-12-07T07:15:31;8.43;;;7.00;;
12482;SDS011;6306;47.134;15.344;2022-12-07T07:17:57;14.23;;;8.13;;
12482;SDS011;6306;47.134;15.344;2022-12-07T07:20:23;18.57;;;8.50;;
12482;SDS011;6306;47.134;15.344;2022-12-07T07:22:49;12.47;;;7.37;;
12482;SDS011;6306;47.134;15.344;2022-12-07T07:25:15;10.83;;;8.47;;
12482;SDS011;6306;47.134;15.344;2022-12-07T07:27:41;8.17;;;5.90;;
12482;SDS011;6306;47.134;15.344;2022-12-07T07:30:07;8.77;;;6.20;;
12482;SDS011;6306;47.134;15.344;2022-12-07T07:32:34;24.30;;;9.07;;
12482;SDS011;6306;47.134;15.344;2022-12-07T07:35:00;13.20;;;10.10;;
12482;SDS011;6306;47.134;15.344;2022-12-07T07:37:26;17.83;;;12.53;;
12482;SDS011;6306;47.134;15.344;2022-12-07T07:39:52;19.73;;;12.53;;
12482;SDS011;6306;47.134;15.344;2022-12-07T07:42:18;16.30;;;11.90;;
12482;SDS011;6306;47.134;15.344;2022-12-07T07:44:44;16.03;;;10.07;;
12482;SDS011;6306;47.134;15.344;2022-12-07T07:47:10;14.63;;;9.20;;
12482;SDS011;6306;47.134;15.344;2022-12-07T07:49:36;11.13;;;8.87;;
12482;SDS011;6306;47.134;15.344;2022-12-07T07:52:02;20.93;;;11.37;;
12482;SDS011;6306;47.134;15.344;2022-12-07T07:54:28;12.77;;;9.33;;
12482;SDS011;6306;47.134;15.344;2022-12-07T07:56:54;19.10;;;9.73;;
12482;SDS011;6306;47.134;15.344;2022-12-07T07:59:20;16.50;;;10.23;;
12482;SDS011;6306;47.134;15.344;2022-12-07T08:01:46;15.07;;;8.90;;
12482;SDS011;6306;47.134;15.344;2022-12-07T08:04:12;15.07;;;9.57;;
12482;SDS011;6306;47.134;15.344;2022-12-07T08:06:38;15.57;;;9.57;;
12482;SDS011;6306;47.134;15.344;2022-12-07T08:09:07;11.53;;;7.17;;
12482;SDS011;6306;47.134;15.344;2022-12-07T08:11:33;19.87;;;9.80;;
12482;SDS011;6306;47.134;15.344;2022-12-07T08:13:59;18.13;;;9.60;;
12482;SDS011;6306;47.134;15.344;2022-12-07T08:16:25;15.57;;;11.17;;
12482;SDS011;6306;47.134;15.344;2022-12-07T08:18:51;26.77;;;12.07;;
12482;SDS011;6306;47.134;15.344;2022-12-07T08:21:17;14.07;;;9.70;;
12482;SDS011;6306;47.134;15.344;2022-12-07T08:23:43;11.30;;;8.40;;
12482;SDS011;6306;47.134;15.344;2022-12-07T08:26:11;15.03;;;9.27;;
12482;SDS011;6306;47.134;15.344;2022-12-07T08:28:38;16.63;;;10.23;;
12482;SDS011;6306;47.134;15.344;2022-12-07T08:31:05;14.77;;;8.93;;
12482;SDS011;6306;47.134;15.344;2022-12-07T08:33:32;15.50;;;10.73;;
12482;SDS011;6306;47.134;15.344;2022-12-07T08:36:01;17.90;;;9.47;;
12482;SDS011;6306;47.134;15.344;2022-12-07T08:38:27;17.30;;;9.90;;
12482;SDS011;6306;47.134;15.344;2022-12-07T08:40:54;20.37;;;10.43;;
12482;SDS011;6306;47.134;15.344;2022-12-07T08:43:20;13.80;;;9.80;;
12482;SDS011;6306;47.134;15.344;2022-12-07T08:45:47;11.70;;;9.37;;
12482;SDS011;6306;47.134;15.344;2022-12-07T08:48:14;13.93;;;9.80;;
12482;SDS011;6306;47.134;15.344;2022-12-07T08:50:43;12.20;;;8.73;;
12482;SDS011;6306;47.134;15.344;2022-12-07T08:53:09;14.27;;;8.90;;
12482;SDS011;6306;47.134;15.344;2022-12-07T08:55:35;13.70;;;8.60;;
12482;SDS011;6306;47.134;15.344;2022-12-07T08:58:01;12.80;;;7.47;;
12482;SDS011;6306;47.134;15.344;2022-12-07T09:00:28;14.03;;;8.30;;
12482;SDS011;6306;47.134;15.344;2022-12-07T09:02:54;15.73;;;9.80;;
12482;SDS011;6306;47.134;15.344;2022-12-07T09:05:20;11.03;;;7.80;;
12482;SDS011;6306;47.134;15.344;2022-12-07T09:07:47;20.80;;;11.83;;
12482;SDS011;6306;47.134;15.344;2022-12-07T09:10:14;15.23;;;8.83;;
12482;SDS011;6306;47.134;15.344;2022-12-07T09:12:40;12.07;;;7.83;;
12482;SDS011;6306;47.134;15.344;2022-12-07T09:15:06;16.80;;;8.50;;
12482;SDS011;6306;47.134;15.344;2022-12-07T09:17:33;24.03;;;9.73;;
12482;SDS011;6306;47.134;15.344;2022-12-07T09:19:59;18.13;;;9.40;;
12482;SDS011;6306;47.134;15.344;2022-12-07T09:22:28;12.97;;;8.57;;
12482;SDS011;6306;47.134;15.344;2022-12-07T09:24:55;15.03;;;7.90;;
12482;SDS011;6306;47.134;15.344;2022-12-07T09:27:21;16.80;;;10.53;;
12482;SDS011;6306;47.134;15.344;2022-12-07T09:29:47;15.10;;;10.80;;
12482;SDS011;6306;47.134;15.344;2022-12-07T09:32:13;19.90;;;9.37;;
12482;SDS011;6306;47.134;15.344;2022-12-07T09:34:39;12.10;;;8.30;;
12482;SDS011;6306;47.134;15.344;2022-12-07T09:37:05;16.70;;;10.07;;
12482;SDS011;6306;47.134;15.344;2022-12-07T09:39:31;15.40;;;10.60;;
12482;SDS011;6306;47.134;15.344;2022-12-07T09:41:58;16.23;;;9.77;;
12482;SDS011;6306;47.134;15.344;2022-12-07T09:44:25;11.57;;;8.17;;
12482;SDS011;6306;47.134;15.344;2022-12-07T09:46:53;19.67;;;11.43;;
12482;SDS011;6306;47.134;15.344;2022-12-07T09:49:20;13.80;;;9.43;;
12482;SDS011;6306;47.134;15.344;2022-12-07T09:51:47;14.57;;;9.60;;
12482;SDS011;6306;47.134;15.344;2022-12-07T09:54:14;17.20;;;11.60;;
12482;SDS011;6306;47.134;15.344;2022-12-07T09:56:41;14.87;;;9.03;;
12482;SDS011;6306;47.134;15.344;2022-12-07T09:59:09;11.90;;;9.80;;
12482;SDS011;6306;47.134;15.344;2022-12-07T10:01:37;23.87;;;10.13;;
12482;SDS011;6306;47.134;15.344;2022-12-07T10:04:25;13.67;;;9.13;;
12482;SDS011;6306;47.134;15.344;2022-12-07T10:06:51;15.33;;;8.50;;
12482;SDS011;6306;47.134;15.344;2022-12-07T10:09:19;12.00;;;8.93;;
12482;SDS011;6306;47.134;15.344;2022-12-07T10:14:31;13.03;;;8.07;;
12482;SDS011;6306;47.134;15.344;2022-12-07T10:16:57;19.07;;;10.77;;
12482;SDS011;6306;47.134;15.344;2022-12-07T10:19:24;15.07;;;10.23;;
12482;SDS011;6306;47.134;15.344;2022-12-07T10:24:36;13.77;;;9.57;;
12482;SDS011;6306;47.134;15.344;2022-12-07T10:27:04;11.97;;;9.17;;
12482;SDS011;6306;47.134;15.344;2022-12-07T10:32:05;9.43;;;6.10;;
12482;SDS011;6306;47.134;15.344;2022-12-07T10:34:33;14.27;;;8.40;;
12482;SDS011;6306;47.134;15.344;2022-12-07T10:39:41;11.10;;;8.40;;
12482;SDS011;6306;47.134;15.344;2022-12-07T10:42:15;10.50;;;7.07;;
12482;SDS011;6306;47.134;15.344;2022-12-07T10:44:42;12.73;;;7.47;;
12482;SDS011;6306;47.134;15.344;2022-12-07T10:56:20;9.97;;;7.97;;
12482;SDS011;6306;47.134;15.344;2022-12-07T10:58:27;16.07;;;8.17;;
12482;SDS011;6306;47.134;15.344;2022-12-07T11:03:44;13.10;;;9.40;;
12482;SDS011;6306;47.134;15.344;2022-12-07T11:19:20;13.80;;;10.40;;
12482;SDS011;6306;47.134;15.344;2022-12-07T11:21:58;16.03;;;11.70;;
12482;SDS011;6306;47.134;15.344;2022-12-07T11:24:32;11.80;;;10.50;;
12482;SDS011;6306;47.134;15.344;2022-12-07T11:29:54;18.50;;;9.57;;
12482;SDS011;6306;47.134;15.344;2022-12-07T11:37:38;13.20;;;8.90;;
12482;SDS011;6306;47.134;15.344;2022-12-07T11:42:42;26.20;;;10.50;;
12482;SDS011;6306;47.134;15.344;2022-12-07T11:45:21;19.50;;;10.77;;
12482;SDS011;6306;47.134;15.344;2022-12-07T11:50:32;15.23;;;9.97;;
12482;SDS011;6306;47.134;15.344;2022-12-07T11:58:12;11.50;;;8.47;;
12482;SDS011;6306;47.134;15.344;2022-12-07T12:00:39;7.53;;;6.10;;
12482;SDS011;6306;47.134;15.344;2022-12-07T12:03:11;7.83;;;7.03;;
12482;SDS011;6306;47.134;15.344;2022-12-07T12:05:38;13.90;;;9.20;;
12482;SDS011;6306;47.134;15.344;2022-12-07T12:16:38;12.43;;;9.90;;
12482;SDS011;6306;47.134;15.344;2022-12-07T12:22:12;10.90;;;8.67;;
12482;SDS011;6306;47.134;15.344;2022-12-07T12:24:39;12.30;;;8.13;;
12482;SDS011;6306;47.134;15.344;2022-12-07T12:27:08;12.00;;;8.53;;
12482;SDS011;6306;47.134;15.344;2022-12-07T12:29:41;15.10;;;7.30;;
12482;SDS011;6306;47.134;15.344;2022-12-07T12:32:19;12.20;;;8.20;;
12482;SDS011;6306;47.134;15.344;2022-12-07T12:42:51;12.20;;;8.83;;
12482;SDS011;6306;47.134;15.344;2022-12-07T12:45:19;9.27;;;6.27;;
12482;SDS011;6306;47.134;15.344;2022-12-07T12:47:53;14.00;;;7.77;;
12482;SDS011;6306;47.134;15.344;2022-12-07T12:50:20;12.30;;;8.17;;
12482;SDS011;6306;47.134;15.344;2022-12-07T12:55:19;12.93;;;7.80;;
12482;SDS011;6306;47.134;15.344;2022-12-07T12:57:47;11.70;;;6.83;;
12482;SDS011;6306;47.134;15.344;2022-12-07T13:00:20;11.90;;;8.53;;
12482;SDS011;6306;47.134;15.344;2022-12-07T13:02:55;16.83;;;7.57;;
12482;SDS011;6306;47.134;15.344;2022-12-07T13:05:27;10.63;;;8.40;;
12482;SDS011;6306;47.134;15.344;2022-12-07T13:08:05;8.07;;;6.93;;
12482;SDS011;6306;47.134;15.344;2022-12-07T13:10:40;8.07;;;7.03;;
12482;SDS011;6306;47.134;15.344;2022-12-07T13:20:58;14.60;;;8.00;;
12482;SDS011;6306;47.134;15.344;2022-12-07T13:26:12;14.33;;;7.20;;
12482;SDS011;6306;47.134;15.344;2022-12-07T13:28:44;9.60;;;6.10;;
12482;SDS011;6306;47.134;15.344;2022-12-07T13:31:14;10.07;;;6.00;;
12482;SDS011;6306;47.134;15.344;2022-12-07T13:33:44;8.00;;;6.10;;
12482;SDS011;6306;47.134;15.344;2022-12-07T13:36:21;9.73;;;7.20;;
12482;SDS011;6306;47.134;15.344;2022-12-07T13:38:57;11.50;;;7.07;;
12482;SDS011;6306;47.134;15.344;2022-12-07T13:41:25;9.23;;;6.73;;
12482;SDS011;6306;47.134;15.344;2022-12-07T13:49:22;14.47;;;7.80;;
12482;SDS011;6306;47.134;15.344;2022-12-07T13:51:49;17.60;;;9.40;;
12482;SDS011;6306;47.134;15.344;2022-12-07T13:54:16;16.50;;;10.90;;
12482;SDS011;6306;47.134;15.344;2022-12-07T13:56:42;22.40;;;14.37;;
12482;SDS011;6306;47.134;15.344;2022-12-07T13:59:27;29.27;;;19.37;;
12482;SDS011;6306;47.134;15.344;2022-12-07T14:01:55;39.50;;;21.83;;
12482;SDS011;6306;47.134;15.344;2022-12-07T14:04:34;27.83;;;17.30;;
12482;SDS011;6306;47.134;15.344;2022-12-07T14:07:16;21.13;;;13.60;;
12482;SDS011;6306;47.134;15.344;2022-12-07T14:09:53;19.43;;;12.90;;
12482;SDS011;6306;47.134;15.344;2022-12-07T14:12:19;21.97;;;11.97;;
12482;SDS011;6306;47.134;15.344;2022-12-07T14:14:48;12.80;;;8.50;;
12482;SDS011;6306;47.134;15.344;2022-12-07T14:17:18;9.97;;;7.50;;
12482;SDS011;6306;47.134;15.344;2022-12-07T14:24:58;8.73;;;7.37;;
12482;SDS011;6306;47.134;15.344;2022-12-07T14:27:24;8.67;;;6.07;;
12482;SDS011;6306;47.134;15.344;2022-12-07T14:29:56;9.60;;;7.50;;
12482;SDS011;6306;47.134;15.344;2022-12-07T14:34:56;10.80;;;7.70;;
12482;SDS011;6306;47.134;15.344;2022-12-07T14:37:23;11.50;;;8.70;;
12482;SDS011;6306;47.134;15.344;2022-12-07T14:39:49;13.77;;;9.40;;
12482;SDS011;6306;47.134;15.344;2022-12-07T14:42:15;17.70;;;11.20;;
12482;SDS011;6306;47.134;15.344;2022-12-07T14:44:41;16.17;;;11.50;;
12482;SDS011;6306;47.134;15.344;2022-12-07T14:47:10;25.03;;;14.40;;
12482;SDS011;6306;47.134;15.344;2022-12-07T14:49:36;21.10;;;12.23;;
12482;SDS011;6306;47.134;15.344;2022-12-07T14:52:03;16.57;;;11.27;;
12482;SDS011;6306;47.134;15.344;2022-12-07T14:54:30;21.20;;;11.63;;
12482;SDS011;6306;47.134;15.344;2022-12-07T14:56:56;20.47;;;11.93;;
12482;SDS011;6306;47.134;15.344;2022-12-07T14:59:22;22.80;;;14.93;;
12482;SDS011;6306;47.134;15.344;2022-12-07T15:01:48;19.17;;;12.67;;
12482;SDS011;6306;47.134;15.344;2022-12-07T15:04:14;20.17;;;12.97;;
12482;SDS011;6306;47.134;15.344;2022-12-07T15:06:40;13.60;;;10.30;;
12482;SDS011;6306;47.134;15.344;2022-12-07T15:09:09;24.70;;;10.80;;
12482;SDS011;6306;47.134;15.344;2022-12-07T15:11:36;22.70;;;10.60;;
12482;SDS011;6306;47.134;15.344;2022-12-07T15:14:02;15.77;;;10.10;;
12482;SDS011;6306;47.134;15.344;2022-12-07T15:16:36;12.60;;;8.60;;
12482;SDS011;6306;47.134;15.344;2022-12-07T15:19:02;18.33;;;9.03;;
12482;SDS011;6306;47.134;15.344;2022-12-07T15:21:28;11.60;;;8.70;;
12482;SDS011;6306;47.134;15.344;2022-12-07T15:23:54;13.60;;;8.43;;
12482;SDS011;6306;47.134;15.344;2022-12-07T15:26:20;12.97;;;8.60;;
12482;SDS011;6306;47.134;15.344;2022-12-07T15:28:46;12.63;;;8.90;;
12482;SDS011;6306;47.134;15.344;2022-12-07T15:31:13;12.80;;;8.30;;
12482;SDS011;6306;47.134;15.344;2022-12-07T15:33:39;12.80;;;9.23;;
12482;SDS011;6306;47.134;15.344;2022-12-07T15:36:05;12.33;;;8.27;;
12482;SDS011;6306;47.134;15.344;2022-12-07T15:38:31;9.97;;;8.00;;
12482;SDS011;6306;47.134;15.344;2022-12-07T15:40:57;16.00;;;9.07;;
12482;SDS011;6306;47.134;15.344;2022-12-07T15:43:23;12.77;;;9.90;;
12482;SDS011;6306;47.134;15.344;2022-12-07T15:46:08;9.87;;;7.70;;
12482;SDS011;6306;47.134;15.344;2022-12-07T15:48:34;11.67;;;9.50;;
12482;SDS011;6306;47.134;15.344;2022-12-07T15:51:07;14.40;;;9.47;;
12482;SDS011;6306;47.134;15.344;2022-12-07T15:53:34;18.23;;;10.20;;
12482;SDS011;6306;47.134;15.344;2022-12-07T15:56:00;24.10;;;15.17;;
12482;SDS011;6306;47.134;15.344;2022-12-07T15:58:26;22.30;;;13.67;;
12482;SDS011;6306;47.134;15.344;2022-12-07T16:00:52;19.57;;;12.63;;
12482;SDS011;6306;47.134;15.344;2022-12-07T16:03:18;18.63;;;13.67;;
12482;SDS011;6306;47.134;15.344;2022-12-07T16:05:48;33.67;;;16.87;;
12482;SDS011;6306;47.134;15.344;2022-12-07T16:08:15;27.97;;;18.87;;
12482;SDS011;6306;47.134;15.344;2022-12-07T16:10:41;30.17;;;18.47;;
12482;SDS011;6306;47.134;15.344;2022-12-07T16:13:08;32.43;;;20.10;;
12482;SDS011;6306;47.134;15.344;2022-12-07T16:15:38;27.97;;;16.33;;
12482;SDS011;6306;47.134;15.344;2022-12-07T16:18:04;27.97;;;16.90;;
12482;SDS011;6306;47.134;15.344;2022-12-07T16:20:30;31.20;;;17.60;;
12482;SDS011;6306;47.134;15.344;2022-12-07T16:22:56;28.00;;;16.60;;
12482;SDS011;6306;47.134;15.344;2022-12-07T16:25:22;20.77;;;15.60;;
12482;SDS011;6306;47.134;15.344;2022-12-07T16:27:48;28.37;;;13.47;;
12482;SDS011;6306;47.134;15.344;2022-12-07T16:30:14;18.60;;;12.20;;
12482;SDS011;6306;47.134;15.344;2022-12-07T16:32:41;24.23;;;14.80;;
12482;SDS011;6306;47.134;15.344;2022-12-07T16:35:08;18.30;;;14.60;;
12482;SDS011;6306;47.134;15.344;2022-12-07T16:37:34;28.00;;;14.73;;
12482;SDS011;6306;47.134;15.344;2022-12-07T16:40:00;20.90;;;14.80;;
12482;SDS011;6306;47.134;15.344;2022-12-07T16:42:26;21.20;;;15.60;;
12482;SDS011;6306;47.134;15.344;2022-12-07T16:44:56;22.93;;;16.43;;
12482;SDS011;6306;47.134;15.344;2022-12-07T16:47:22;20.07;;;12.10;;